createdAt,value
2022-12-15T00:03:16.305Z,99462.44
2022-12-15T00:06:38.057Z,99460.59
2022-12-15T00:09:58.655Z,99460.00
2022-12-15T00:13:19.561Z,99467.19
2022-12-15T00:16:40.446Z,99466.06
2022-12-15T00:20:01.559Z,99463.75
2022-12-15T00:23:29.689Z,99469.03
2022-12-15T00:26:51.086Z,99482.69
2022-12-15T00:30:11.989Z,99493.00
2022-12-15T00:33:33.218Z,99494.09
2022-12-15T00:36:54.363Z,99483.66
2022-12-15T00:40:04.704Z,99482.03
2022-12-15T00:43:07.002Z,99483.16
2022-12-15T00:46:28.160Z,99491.97
2022-12-15T00:49:50.242Z,99488.25
2022-12-15T00:53:10.964Z,99479.03
2022-12-15T00:56:31.909Z,99480.66
2022-12-15T00:59:53.051Z,99495.16
2022-12-15T01:03:13.995Z,99488.47
2022-12-15T01:06:37.703Z,99476.28
2022-12-15T01:09:58.251Z,99475.56
2022-12-15T01:13:19.219Z,99465.63
2022-12-15T01:16:40.241Z,99466.94
2022-12-15T01:20:01.882Z,99490.66
2022-12-15T01:23:04.152Z,99496.75
2022-12-15T01:26:06.935Z,99493.34
2022-12-15T01:29:09.146Z,99490.06
2022-12-15T01:32:13.164Z,99493.56
2022-12-15T01:35:15.835Z,99492.81
2022-12-15T01:38:18.343Z,99489.78
2022-12-15T01:41:20.728Z,99489.13
2022-12-15T01:44:24.579Z,99486.12
2022-12-15T01:47:28.088Z,99482.78
2022-12-15T01:50:33.080Z,99490.78
2022-12-15T01:53:39.804Z,99490.16
2022-12-15T01:56:49.959Z,99477.38
2022-12-15T01:59:55.924Z,99471.25
2022-12-15T02:03:01.962Z,99479.22
2022-12-15T02:06:05.143Z,99487.16
2022-12-15T02:09:08.285Z,99497.28
2022-12-15T02:12:22.992Z,99501.38
2022-12-15T02:15:28.186Z,99489.50
2022-12-15T02:18:37.703Z,99486.34
2022-12-15T02:22:02.750Z,99492.81
2022-12-15T02:25:29.701Z,99493.94
2022-12-15T02:28:40.386Z,99500.81
2022-12-15T02:32:00.349Z,99499.34
2022-12-15T02:35:12.387Z,99495.31
2022-12-15T02:38:14.943Z,99486.50
2022-12-15T02:41:37.275Z,99497.16
2022-12-15T02:44:53.708Z,99499.03
2022-12-15T02:48:34.399Z,99491.47
2022-12-15T02:52:11.303Z,99503.72
2022-12-15T02:55:21.245Z,99502.47
2022-12-15T02:58:36.380Z,99510.41
2022-12-15T03:01:53.864Z,99508.38
2022-12-15T03:04:58.336Z,99497.06
2022-12-15T03:08:01.377Z,99494.84
2022-12-15T03:11:04.041Z,99499.88
2022-12-15T03:14:06.381Z,99508.69
2022-12-15T03:17:08.980Z,99511.25
2022-12-15T03:20:12.089Z,99518.94
2022-12-15T03:23:14.807Z,99511.25
2022-12-15T03:26:17.090Z,99523.25
2022-12-15T03:29:19.894Z,99526.31
2022-12-15T03:32:22.153Z,99527.34
2022-12-15T03:35:24.688Z,99529.25
2022-12-15T03:38:27.024Z,99521.97
2022-12-15T03:41:29.520Z,99525.59
2022-12-15T03:44:31.797Z,99525.34
2022-12-15T03:47:34.397Z,99517.41
2022-12-15T03:50:37.515Z,99513.22
2022-12-15T03:53:40.851Z,99513.37
2022-12-15T03:56:43.178Z,99529.84
2022-12-15T03:59:45.749Z,99532.34
2022-12-15T04:02:50.198Z,99533.66
2022-12-15T04:05:53.150Z,99535.81
2022-12-15T04:08:55.532Z,99547.91
2022-12-15T04:11:58.106Z,99541.78
2022-12-15T04:15:00.430Z,99544.53
2022-12-15T04:18:05.365Z,99535.50
2022-12-15T04:21:07.601Z,99552.37
2022-12-15T04:24:29.125Z,99546.28
2022-12-15T04:27:49.968Z,99564.06
2022-12-15T04:31:18.148Z,99570.59
2022-12-15T04:34:41.884Z,99576.63
2022-12-15T04:38:03.223Z,99569.59
2022-12-15T04:41:24.784Z,99573.47
2022-12-15T04:44:50.161Z,99577.66
2022-12-15T04:48:11.603Z,99592.38
2022-12-15T04:51:32.579Z,99597.09
2022-12-15T04:54:53.295Z,99611.47
2022-12-15T04:58:14.677Z,99617.75
2022-12-15T05:01:35.382Z,99613.69
2022-12-15T05:04:56.689Z,99611.28
2022-12-15T05:08:17.716Z,99604.41
2022-12-15T05:11:39.080Z,99628.78
2022-12-15T05:15:00.026Z,99640.75
2022-12-15T05:18:21.286Z,99640.34
2022-12-15T05:21:42.317Z,99650.31
2022-12-15T05:25:03.205Z,99647.66
2022-12-15T05:28:25.163Z,99649.38
2022-12-15T05:31:46.341Z,99655.44
2022-12-15T05:34:48.634Z,99646.16
2022-12-15T05:37:51.158Z,99657.56
2022-12-15T05:40:53.463Z,99671.75
2022-12-15T05:43:55.985Z,99658.91
2022-12-15T05:46:58.239Z,99661.66
2022-12-15T05:50:00.798Z,99677.47
2022-12-15T05:53:03.070Z,99671.84
2022-12-15T05:56:08.345Z,99687.63
2022-12-15T05:59:11.076Z,99714.91
2022-12-15T06:02:13.672Z,99725.66
2022-12-15T06:05:16.357Z,99717.63
2022-12-15T06:08:18.581Z,99723.75
2022-12-15T06:11:22.333Z,99726.66
2022-12-15T06:14:24.544Z,99731.31
2022-12-15T06:17:27.173Z,99740.34
2022-12-15T06:20:29.559Z,99743.13
2022-12-15T06:23:33.344Z,99746.97
2022-12-15T06:26:37.997Z,99742.56
2022-12-15T06:29:40.534Z,99756.31
2022-12-15T06:32:42.771Z,99767.34
2022-12-15T06:35:45.426Z,99760.44
2022-12-15T06:38:49.985Z,99782.00
2022-12-15T06:41:52.747Z,99773.88
2022-12-15T06:44:54.985Z,99764.94
2022-12-15T06:48:01.301Z,99756.87
2022-12-15T06:51:05.838Z,99775.69
2022-12-15T06:54:11.239Z,99781.75
2022-12-15T06:57:13.540Z,99788.53
2022-12-15T07:00:16.428Z,99793.75
2022-12-15T07:03:20.417Z,99802.69
2022-12-15T07:06:23.165Z,99801.53
2022-12-15T07:09:26.254Z,99786.47
2022-12-15T07:12:28.908Z,99806.31
2022-12-15T07:15:31.886Z,99826.91
2022-12-15T07:18:34.469Z,99810.56
2022-12-15T07:21:36.764Z,99823.75
2022-12-15T07:24:39.332Z,99826.75
2022-12-15T07:27:41.622Z,99825.50
2022-12-15T07:30:44.283Z,99842.50
2022-12-15T07:33:48.476Z,99835.69
2022-12-15T07:36:52.781Z,99839.09
2022-12-15T07:39:55.212Z,99841.56
2022-12-15T07:42:57.731Z,99846.97
2022-12-15T07:46:00.423Z,99859.69
2022-12-15T07:49:03.132Z,99850.44
2022-12-15T07:52:05.498Z,99855.31
2022-12-15T07:55:08.383Z,99856.13
2022-12-15T07:58:10.631Z,99850.91
2022-12-15T08:01:14.701Z,99867.75
2022-12-15T08:04:17.524Z,99866.69
2022-12-15T08:07:19.805Z,99869.91
2022-12-15T08:10:22.381Z,99869.06
2022-12-15T08:14:00.191Z,99869.72
2022-12-15T08:16:47.566Z,99881.34
2022-12-15T08:19:49.891Z,99872.13
2022-12-15T08:22:52.471Z,99875.41
2022-12-15T08:25:54.789Z,99891.84
2022-12-15T08:29:11.894Z,99906.50
2022-12-15T08:32:19.787Z,99907.47
2022-12-15T08:35:54.619Z,99900.41
2022-12-15T08:38:46.044Z,99909.59
2022-12-15T08:41:50.038Z,99917.44
2022-12-15T08:44:52.374Z,99905.41
2022-12-15T08:47:56.132Z,99895.81
2022-12-15T08:50:59.214Z,99904.00
2022-12-15T08:54:02.315Z,99916.31
2022-12-15T08:57:05.274Z,99919.66
2022-12-15T09:00:08.586Z,99922.75
2022-12-15T09:03:10.837Z,99932.44
2022-12-15T09:06:16.328Z,99940.41
2022-12-15T09:09:19.647Z,99940.13
2022-12-15T09:12:22.327Z,99945.88
2022-12-15T09:15:39.471Z,99914.31
2022-12-15T09:18:49.610Z,99922.63
2022-12-15T09:21:52.103Z,99912.28
2022-12-15T09:24:54.638Z,99921.72
2022-12-15T09:27:57.231Z,99917.66
2022-12-15T09:31:09.115Z,99930.69
2022-12-15T09:34:17.831Z,99926.88
2022-12-15T09:37:20.912Z,99919.06
2022-12-15T09:40:24.177Z,99928.97
2022-12-15T09:43:38.919Z,99921.50
2022-12-15T09:47:04.990Z,99920.66
2022-12-15T09:50:12.644Z,99921.50
2022-12-15T09:53:52.948Z,99922.94
2022-12-15T09:57:28.772Z,99909.97
2022-12-15T10:00:55.637Z,99911.47
2022-12-15T10:04:04.265Z,99911.53
2022-12-15T10:07:21.773Z,99910.59
2022-12-15T10:10:30.704Z,99909.78
2022-12-15T10:14:02.580Z,99925.37
2022-12-15T10:17:23.824Z,99931.91
2022-12-15T10:20:29.883Z,99932.72
2022-12-15T10:23:35.999Z,99927.56
2022-12-15T10:26:41.296Z,99933.41
2022-12-15T10:29:51.801Z,99916.13
2022-12-15T10:33:01.549Z,99932.69
2022-12-15T10:36:12.471Z,99919.28
2022-12-15T10:39:17.655Z,99924.50
2022-12-15T10:42:25.691Z,99933.09
2022-12-15T10:45:39.204Z,99907.06
2022-12-15T10:48:44.216Z,99912.16
2022-12-15T10:51:57.494Z,99912.84
2022-12-15T10:55:00.801Z,99912.72
2022-12-15T10:58:14.524Z,99900.84
2022-12-15T11:01:24.973Z,99903.50
2022-12-15T11:04:32.261Z,99904.97
2022-12-15T11:07:41.661Z,99906.12
2022-12-15T11:11:16.988Z,99904.44
2022-12-15T11:14:24.330Z,99915.94
2022-12-15T11:17:40.578Z,99920.28
2022-12-15T11:21:07.669Z,99922.44
2022-12-15T11:24:33.980Z,99912.66
2022-12-15T11:27:43.408Z,99915.00
2022-12-15T11:30:53.075Z,99911.28
2022-12-15T11:33:57.135Z,99903.22
2022-12-15T11:37:18.746Z,99905.50
2022-12-15T11:40:35.795Z,99910.25
2022-12-15T11:43:53.295Z,99913.78
2022-12-15T11:47:10.781Z,99908.75
2022-12-15T11:50:41.221Z,99902.75
2022-12-15T11:53:58.910Z,99917.63
2022-12-15T11:57:32.676Z,99927.03
2022-12-15T12:00:42.754Z,99938.03
2022-12-15T12:04:14.633Z,99941.22
2022-12-15T12:07:51.912Z,99940.37
2022-12-15T12:11:16.810Z,99937.31
2022-12-15T12:14:39.885Z,99926.72
2022-12-15T12:17:48.018Z,99931.16
2022-12-15T12:20:56.593Z,99928.16
2022-12-15T12:24:01.566Z,99927.06
2022-12-15T12:27:17.968Z,99926.50
2022-12-15T12:30:24.163Z,99921.31
2022-12-15T12:33:39.877Z,99913.66
2022-12-15T12:36:44.946Z,99909.81
2022-12-15T12:39:54.134Z,99907.41
2022-12-15T12:42:58.498Z,99913.72
2022-12-15T12:46:16.168Z,99916.16
2022-12-15T12:49:33.444Z,99917.25
2022-12-15T12:52:38.047Z,99922.91
2022-12-15T12:55:43.712Z,99913.03
2022-12-15T12:58:48.461Z,99921.50
2022-12-15T13:01:51.363Z,99922.25
2022-12-15T13:05:27.287Z,99918.69
2022-12-15T13:08:50.962Z,99930.56
2022-12-15T13:12:14.989Z,99936.41
2022-12-15T13:15:41.697Z,99944.56
2022-12-15T13:19:06.758Z,99954.56
2022-12-15T13:22:31.604Z,99955.37
2022-12-15T13:25:42.491Z,99953.19
2022-12-15T13:28:48.835Z,99945.06
2022-12-15T13:31:54.004Z,99944.84
2022-12-15T13:34:57.651Z,99942.47
2022-12-15T13:38:07.491Z,99933.13
2022-12-15T13:41:24.385Z,99946.81
2022-12-15T13:44:35.364Z,99953.75
2022-12-15T13:47:38.549Z,99958.94
2022-12-15T13:50:51.367Z,99958.50
2022-12-15T13:54:11.877Z,99951.94
2022-12-15T13:57:17.383Z,99951.72
2022-12-15T14:00:20.389Z,99952.41
2022-12-15T14:03:24.062Z,99948.34
2022-12-15T14:06:35.205Z,99956.47
2022-12-15T14:09:41.997Z,99966.88
2022-12-15T14:12:45.875Z,99955.31
2022-12-15T14:15:58.315Z,99949.47
2022-12-15T14:19:04.213Z,99956.34
2022-12-15T14:22:27.055Z,99956.44
2022-12-15T14:25:30.763Z,99950.44
2022-12-15T14:28:35.953Z,99959.50
2022-12-15T14:31:38.572Z,99956.97
2022-12-15T14:34:43.977Z,99949.53
2022-12-15T14:37:55.990Z,99941.28
2022-12-15T14:41:02.064Z,99941.03
2022-12-15T14:44:38.356Z,99947.66
2022-12-15T14:48:05.742Z,99954.19
2022-12-15T14:51:13.807Z,99966.75
2022-12-15T14:54:35.599Z,99959.62
2022-12-15T14:57:46.569Z,99956.28
2022-12-15T15:00:52.522Z,99955.00
2022-12-15T15:04:04.666Z,99961.31
2022-12-15T15:07:18.326Z,99976.41
2022-12-15T15:10:24.336Z,99970.56
2022-12-15T15:13:40.020Z,99963.97
2022-12-15T15:16:43.708Z,99991.78
2022-12-15T15:19:59.019Z,99976.25
2022-12-15T15:23:07.289Z,99997.09
2022-12-15T15:26:10.603Z,99987.50
2022-12-15T15:29:38.060Z,99965.78
2022-12-15T15:32:58.075Z,99967.44
2022-12-15T15:36:02.655Z,99965.16
2022-12-15T15:39:15.769Z,99967.62
2022-12-15T15:42:18.578Z,99955.53
2022-12-15T15:45:23.419Z,99958.47
2022-12-15T15:48:31.083Z,99955.47
2022-12-15T15:51:35.217Z,99948.09
2022-12-15T15:54:37.553Z,99954.22
2022-12-15T15:57:40.102Z,99944.91
2022-12-15T16:00:42.418Z,99939.97
2022-12-15T16:03:45.140Z,99953.19
2022-12-15T16:06:48.040Z,99937.50
2022-12-15T16:09:51.651Z,99935.53
2022-12-15T16:13:00.809Z,99938.31
2022-12-15T16:16:04.394Z,99942.75
2022-12-15T16:19:07.004Z,99942.47
2022-12-15T16:22:18.484Z,99944.94
2022-12-15T16:25:33.112Z,99959.00
2022-12-15T16:28:42.223Z,99949.41
2022-12-15T16:31:45.808Z,99953.22
2022-12-15T16:34:49.758Z,99946.41
2022-12-15T16:37:52.346Z,99941.16
2022-12-15T16:40:56.650Z,99946.81
2022-12-15T16:43:58.902Z,99960.00
2022-12-15T16:47:01.561Z,99966.34
2022-12-15T16:50:04.178Z,99973.53
2022-12-15T16:53:15.353Z,99965.22
2022-12-15T16:56:17.644Z,99959.25
2022-12-15T16:59:33.028Z,99966.62
2022-12-15T17:02:37.435Z,99978.16
2022-12-15T17:05:42.039Z,99988.50
2022-12-15T17:08:51.688Z,99986.03
2022-12-15T17:11:58.491Z,99990.38
2022-12-15T17:15:02.486Z,100006.28
2022-12-15T17:18:05.140Z,99993.28
2022-12-15T17:21:15.959Z,99988.72
2022-12-15T17:24:20.476Z,99991.31
2022-12-15T17:27:28.253Z,99994.53
2022-12-15T17:30:30.865Z,99994.53
2022-12-15T17:33:35.733Z,99992.56
2022-12-15T17:36:38.583Z,99991.03
2022-12-15T17:39:41.902Z,99991.22
2022-12-15T17:42:46.118Z,99989.22
2022-12-15T17:45:50.860Z,99977.44
2022-12-15T17:48:53.469Z,99989.50
2022-12-15T17:51:56.203Z,99992.50
2022-12-15T17:54:58.796Z,99990.59
2022-12-15T17:58:01.113Z,99993.28
2022-12-15T18:01:04.176Z,99991.03
2022-12-15T18:04:06.877Z,99988.94
2022-12-15T18:07:27.392Z,99982.81
2022-12-15T18:10:33.761Z,99978.97
2022-12-15T18:13:36.048Z,99980.63
2022-12-15T18:16:38.791Z,99976.06
2022-12-15T18:19:41.066Z,99971.50
2022-12-15T18:22:43.971Z,99971.19
2022-12-15T18:25:46.348Z,99982.62
2022-12-15T18:28:49.682Z,99970.06
2022-12-15T18:31:52.364Z,99983.13
2022-12-15T18:34:56.224Z,99981.53
2022-12-15T18:37:58.635Z,99980.38
2022-12-15T18:41:01.612Z,99983.25
2022-12-15T18:44:04.026Z,99984.34
2022-12-15T18:47:16.788Z,99992.72
2022-12-15T18:50:24.957Z,99998.09
2022-12-15T18:53:34.324Z,99981.16
2022-12-15T18:56:37.157Z,99991.75
2022-12-15T18:59:39.811Z,99974.97
2022-12-15T19:02:42.715Z,99981.09
2022-12-15T19:05:46.051Z,99980.38
2022-12-15T19:08:50.065Z,99968.31
2022-12-15T19:12:15.435Z,99959.09
2022-12-15T19:15:19.345Z,99964.00
2022-12-15T19:18:42.162Z,99955.50
2022-12-15T19:21:44.547Z,99964.66
2022-12-15T19:24:55.755Z,99965.19
2022-12-15T19:28:00.072Z,99958.94
2022-12-15T19:31:02.823Z,99968.59
2022-12-15T19:34:05.181Z,99975.22
2022-12-15T19:37:19.814Z,99962.19
2022-12-15T19:40:33.196Z,99968.22
2022-12-15T19:43:36.245Z,99958.56
2022-12-15T19:46:40.862Z,99966.09
2022-12-15T19:49:43.567Z,99951.53
2022-12-15T19:52:49.115Z,99965.78
2022-12-15T19:55:54.421Z,99962.47
2022-12-15T19:58:57.007Z,99953.19
2022-12-15T20:01:59.679Z,99942.88
2022-12-15T20:05:02.447Z,99932.94
2022-12-15T20:08:05.128Z,99925.31
2022-12-15T20:11:25.794Z,99926.91
2022-12-15T20:14:28.127Z,99920.38
2022-12-15T20:17:30.628Z,99900.09
2022-12-15T20:20:33.389Z,99883.75
2022-12-15T20:23:40.640Z,99885.63
2022-12-15T20:26:43.922Z,99882.44
2022-12-15T20:29:46.532Z,99892.03
2022-12-15T20:32:49.409Z,99886.37
2022-12-15T20:35:52.445Z,99873.94
2022-12-15T20:38:55.772Z,99883.34
2022-12-15T20:41:58.369Z,99885.53
2022-12-15T20:45:00.635Z,99893.50
2022-12-15T20:48:03.225Z,99882.56
2022-12-15T20:51:09.824Z,99876.00
2022-12-15T20:54:21.292Z,99887.81
2022-12-15T20:57:23.586Z,99892.69
2022-12-15T21:00:26.374Z,99872.59
2022-12-15T21:03:32.961Z,99865.44
2022-12-15T21:06:36.904Z,99857.47
2022-12-15T21:09:39.638Z,99869.63
2022-12-15T21:12:44.194Z,99863.06
2022-12-15T21:15:46.840Z,99873.84
2022-12-15T21:22:25.824Z,99856.78
2022-12-15T21:25:29.956Z,99857.38
2022-12-15T21:28:32.636Z,99847.69
2022-12-15T21:31:35.448Z,99855.38
2022-12-15T21:34:37.950Z,99851.25
2022-12-15T21:37:41.896Z,99849.88
2022-12-15T21:40:44.443Z,99848.47
2022-12-15T21:43:47.025Z,99846.31
2022-12-15T21:46:49.333Z,99849.25
2022-12-15T21:49:55.014Z,99842.38
2022-12-15T21:52:57.527Z,99835.81
2022-12-15T21:56:01.524Z,99820.44
2022-12-15T21:59:11.642Z,99815.28
2022-12-15T22:02:26.209Z,99806.78
2022-12-15T22:05:32.556Z,99811.44
2022-12-15T22:08:35.427Z,99813.91
2022-12-15T22:11:40.219Z,99807.91
2022-12-15T22:14:42.566Z,99801.28
2022-12-15T22:17:45.498Z,99808.75
2022-12-15T22:20:49.918Z,99791.16
2022-12-15T22:23:52.713Z,99799.41
2022-12-15T22:26:55.020Z,99806.03
2022-12-15T22:29:57.623Z,99789.78
2022-12-15T22:33:00.552Z,99777.69
2022-12-15T22:36:03.104Z,99776.34
2022-12-15T22:39:10.741Z,99778.31
2022-12-15T22:42:17.506Z,99777.25
2022-12-15T22:45:21.402Z,99781.41
2022-12-15T22:48:29.878Z,99773.88
2022-12-15T22:51:32.359Z,99775.59
2022-12-15T22:54:34.871Z,99770.06
2022-12-15T22:57:38.441Z,99762.44
2022-12-15T23:00:41.627Z,99762.16
2022-12-15T23:03:43.947Z,99759.88
2022-12-15T23:06:46.591Z,99761.84
2022-12-15T23:09:48.838Z,99759.41
2022-12-15T23:12:54.462Z,99751.50
2022-12-15T23:16:15.469Z,99747.97
2022-12-15T23:19:23.996Z,99739.44
2022-12-15T23:22:26.457Z,99746.59
2022-12-15T23:25:29.394Z,99737.25
2022-12-15T23:28:32.727Z,99731.19
2022-12-15T23:31:35.494Z,99727.34
2022-12-15T23:34:37.841Z,99724.88
2022-12-15T23:37:40.738Z,99715.22
2022-12-15T23:40:53.088Z,99714.75
2022-12-15T23:43:56.007Z,99710.06
2022-12-15T23:46:58.373Z,99708.47
2022-12-15T23:50:01.123Z,99704.66
2022-12-15T23:53:04.352Z,99706.84
2022-12-15T23:56:15.657Z,99690.09
2022-12-15T23:59:17.882Z,99700.81
